Weather reports worldwide

Advertisment
Vieste, Italy (16266): temperature & dewpoint: 16.07.2019 02:00:00 - 22.07.2019 02:00:00 (CEST)Vieste, Italy (16266): wind speed: 16.07.2019 02:00:00 - 22.07.2019 02:00:00 (CEST)Vieste, Italy (16266): wind direction: 16.07.2019 02:00:00 - 22.07.2019 02:00:00 (CEST)Vieste, Italy (16266): reduced air pressure: 16.07.2019 02:00:00 - 22.07.2019 02:00:00 (CEST)Vieste, Italy (16266): precipitation: 16.07.2019 02:00:00 - 22.07.2019 02:00:00 (CEST)
Date & Time tt [°C] td [°C] ff [km/h] ff [kn] dd ppp [hPa] rr [mm]
22.07.2019 02:00:00 - - - - - - -
22.07.2019 01:00:00 23,5 14,7 0 0 N 1019,7 -
22.07.2019 00:00:00 23,9 14,5 0 0 N 1019,6 -
21.07.2019 23:00:00 24,3 14,9 0 0 N 1019,4 -
21.07.2019 22:00:00 25,1 17,0 2 1 SW 1019,4 -
21.07.2019 21:00:00 26,1 19,4 2 1 WNW 1019,0 -
21.07.2019 20:00:00 28,0 20,2 2 1 E 1018,7 -
21.07.2019 19:00:00 28,5 20,2 4 2 E 1018,6 -
21.07.2019 18:00:00 29,3 21,0 4 2 ESE 1019,0 -
21.07.2019 17:00:00 29,7 21,6 4 2 NE 1019,2 -
21.07.2019 16:00:00 - - - - - - -
21.07.2019 15:00:00 29,5 20,3 5 3 E 1019,9 -
21.07.2019 14:00:00 29,2 20,6 5 3 E 1020,0 -
21.07.2019 13:00:00 29,3 20,4 8 4 ESE 1020,1 -
21.07.2019 12:00:00 29,6 22,0 5 3 E 1019,9 -
21.07.2019 11:00:00 28,1 21,3 5 3 NE 1019,8 -
21.07.2019 10:00:00 28,1 20,8 8 4 NE 1019,7 -
21.07.2019 09:00:00 27,7 20,2 8 4 NNE 1019,6 -
21.07.2019 08:00:00 27,4 19,9 0 0 N 1019,4 -
21.07.2019 07:00:00 23,5 16,9 0 0 N 1019,4 -
21.07.2019 06:00:00 21,2 14,3 0 0 N 1019,1 -
21.07.2019 05:00:00 21,1 14,2 2 1 WSW 1018,6 -
21.07.2019 04:00:00 21,0 13,8 2 1 NW 1018,8 -
21.07.2019 03:00:00 21,9 14,5 4 2 W 1018,8 -
21.07.2019 02:00:00 21,6 13,9 0 0 N 1019,3 -
21.07.2019 01:00:00 22,0 13,5 0 0 N 1019,3 -
21.07.2019 00:00:00 22,3 12,8 2 1 WSW 1019,1 -
20.07.2019 23:00:00 23,1 13,2 0 0 N 1018,9 -
20.07.2019 22:00:00 23,9 13,9 4 2 W 1018,8 -
20.07.2019 21:00:00 25,3 15,3 2 1 WSW 1018,3 -
20.07.2019 20:00:00 27,1 17,8 4 2 SW 1018,1 0,0
20.07.2019 19:00:00 28,0 18,6 5 3 S 1018,1 -
20.07.2019 18:00:00 28,4 19,3 8 4 S 1018,3 -
20.07.2019 17:00:00 29,0 20,1 8 4 SE 1018,6 -
20.07.2019 16:00:00 - - - - - - -
20.07.2019 15:00:00 29,1 21,5 9 5 S 1018,9 -
20.07.2019 14:00:00 28,6 21,3 9 5 SE 1018,9 -
20.07.2019 13:00:00 28,2 22,6 8 4 ESE 1019,1 -
20.07.2019 12:00:00 28,3 23,8 8 4 E 1019,0 -
20.07.2019 11:00:00 28,1 23,4 4 2 ENE 1018,9 -
20.07.2019 10:00:00 27,2 21,4 4 2 ENE 1018,5 -
20.07.2019 09:00:00 27,6 20,9 4 2 ENE 1018,1 -
20.07.2019 08:00:00 26,0 19,1 0 0 N 1017,8 -
20.07.2019 07:00:00 22,4 14,9 0 0 N 1017,5 -
20.07.2019 06:00:00 20,4 11,8 2 1 WNW 1017,2 -
20.07.2019 05:00:00 20,7 12,1 2 1 NW 1017,0 -
20.07.2019 04:00:00 20,9 12,5 2 1 WNW 1016,8 -
20.07.2019 03:00:00 20,9 13,0 2 1 W 1016,8 -
20.07.2019 02:00:00 21,2 15,0 0 0 N 1016,9 -
20.07.2019 01:00:00 21,4 14,0 0 0 N 1017,2 -
20.07.2019 00:00:00 22,0 14,3 0 0 N 1017,3 -
19.07.2019 23:00:00 22,9 14,6 5 3 W 1017,2 -
19.07.2019 22:00:00 23,5 18,5 4 2 W 1017,0 -
19.07.2019 21:00:00 24,7 19,5 0 0 N 1016,5 -
19.07.2019 20:00:00 26,1 20,4 2 1 ENE 1016,3 -
19.07.2019 19:00:00 26,8 19,9 2 1 E 1016,1 -
19.07.2019 18:00:00 27,2 20,2 4 2 E 1015,7 -
19.07.2019 17:00:00 27,8 20,6 5 3 E 1015,7 -
19.07.2019 16:00:00 27,8 20,8 5 3 E 1015,8 -
19.07.2019 15:00:00 27,7 21,2 5 3 ESE 1016,2 -
19.07.2019 14:00:00 28,1 22,3 5 3 E 1016,4 -
19.07.2019 13:00:00 27,5 22,4 5 3 E 1016,5 -
19.07.2019 12:00:00 27,5 23,3 5 3 E 1016,4 -
19.07.2019 11:00:00 26,7 22,5 9 5 ENE 1016,2 -
19.07.2019 10:00:00 26,0 21,8 9 5 NNW 1015,9 -
19.07.2019 09:00:00 25,7 21,1 11 6 NE 1015,5 -
19.07.2019 08:00:00 25,3 17,2 4 2 N 1015,0 -
19.07.2019 07:00:00 20,7 13,8 2 1 WNW 1014,6 -
19.07.2019 06:00:00 19,1 11,4 0 0 N 1014,2 -
19.07.2019 05:00:00 19,7 11,7 0 0 N 1013,8 -
19.07.2019 04:00:00 19,7 11,4 2 1 NW 1013,9 -
19.07.2019 03:00:00 20,0 12,9 0 0 N 1013,8 -
19.07.2019 02:00:00 19,8 12,9 0 0 N 1013,9 -
19.07.2019 01:00:00 20,6 14,4 0 0 N 1014,1 -
19.07.2019 00:00:00 21,3 16,4 0 0 N 1013,7 -
18.07.2019 23:00:00 22,5 17,6 0 0 N 1013,6 -
18.07.2019 22:00:00 23,0 16,9 4 2 SW 1013,4 -
18.07.2019 21:00:00 24,4 18,0 2 1 WSW 1012,7 -
18.07.2019 20:00:00 25,7 18,1 4 2 S 1012,1 -
18.07.2019 19:00:00 26,6 18,7 9 5 S 1011,6 -
18.07.2019 18:00:00 26,9 18,1 8 4 SE 1011,7 -
18.07.2019 17:00:00 27,2 17,6 8 4 ESE 1012,0 -
18.07.2019 16:00:00 - - - - - - -
18.07.2019 15:00:00 28,2 18,5 8 4 E 1012,4 -
18.07.2019 14:00:00 28,5 19,1 8 4 E 1012,6 -
18.07.2019 13:00:00 26,9 17,6 8 4 E 1012,5 -
18.07.2019 12:00:00 26,8 19,1 9 5 ENE 1012,5 -
18.07.2019 11:00:00 26,5 18,0 9 5 NNE 1012,4 -
18.07.2019 10:00:00 25,8 18,2 9 5 NNE 1011,9 -
18.07.2019 09:00:00 25,3 15,5 8 4 NE 1011,7 -
18.07.2019 08:00:00 24,8 13,9 0 0 N 1011,2 -
18.07.2019 07:00:00 20,9 12,3 0 0 N 1011,0 -
18.07.2019 06:00:00 19,1 9,0 4 2 W 1011,0 -
18.07.2019 05:00:00 19,2 8,2 4 2 WSW 1011,2 -
18.07.2019 04:00:00 19,9 8,5 2 1 W 1011,3 -
18.07.2019 03:00:00 20,1 8,1 2 1 W 1011,4 -
18.07.2019 02:00:00 21,2 8,7 8 4 W 1011,6 -
18.07.2019 01:00:00 20,7 8,6 5 3 SW 1011,7 -
18.07.2019 00:00:00 21,3 9,5 4 2 WNW 1012,0 -
17.07.2019 23:00:00 21,7 9,8 5 3 NW 1011,9 -
17.07.2019 22:00:00 22,0 12,5 4 2 NW 1012,0 -
17.07.2019 21:00:00 23,4 14,0 5 3 NNW 1011,7 -
17.07.2019 20:00:00 25,3 13,7 9 5 N 1011,7 -
17.07.2019 19:00:00 26,2 14,6 15 8 N 1011,5 -
17.07.2019 18:00:00 26,5 15,8 18 10 N 1011,7 -
17.07.2019 17:00:00 26,6 14,9 16 9 NNE 1012,1 -
17.07.2019 16:00:00 - - - - - - -
17.07.2019 15:00:00 27,0 16,5 18 10 NNE 1012,5 -
17.07.2019 14:00:00 26,9 17,9 16 9 NNE 1012,6 -
17.07.2019 13:00:00 27,2 16,1 15 8 NE 1012,5 -
17.07.2019 12:00:00 26,8 16,1 15 8 ENE 1012,5 -
17.07.2019 11:00:00 26,6 17,3 15 8 NNE 1012,4 -
17.07.2019 10:00:00 25,9 18,8 18 10 NNE 1012,4 -
17.07.2019 09:00:00 25,5 16,0 11 6 NE 1012,3 -
17.07.2019 08:00:00 24,3 17,0 9 5 NE 1012,1 -
17.07.2019 07:00:00 22,3 17,6 4 2 NNW 1011,9 -
17.07.2019 06:00:00 20,7 17,1 4 2 N 1011,7 -
17.07.2019 05:00:00 21,0 17,9 4 2 WNW 1011,3 -
17.07.2019 04:00:00 21,5 18,2 2 1 W 1011,1 -
17.07.2019 03:00:00 22,5 19,2 5 3 W 1011,1 -
17.07.2019 02:00:00 22,8 18,9 8 4 WNW 1011,3 -
17.07.2019 01:00:00 23,7 19,1 8 4 WNW 1011,6 -
17.07.2019 00:00:00 24,0 17,4 9 5 NNW 1011,5 -
16.07.2019 23:00:00 24,2 16,6 15 8 N 1011,4 -
16.07.2019 22:00:00 24,3 16,7 13 7 N 1011,4 -
16.07.2019 21:00:00 24,3 17,2 15 8 NNE 1010,8 -
16.07.2019 20:00:00 25,1 18,9 18 10 N 1010,3 -
16.07.2019 19:00:00 25,5 16,3 18 10 N 1010,1 -
16.07.2019 18:00:00 26,2 16,9 18 10 NNE 1009,9 -
16.07.2019 17:00:00 26,6 17,6 18 10 NNE 1009,7 -
16.07.2019 16:00:00 26,4 16,9 18 10 NE 1009,6 -
16.07.2019 15:00:00 26,4 17,7 16 9 NE 1009,5 -
16.07.2019 14:00:00 26,0 18,6 16 9 NNE 1009,3 -
16.07.2019 13:00:00 25,5 18,6 13 7 ENE 1009,2 -
16.07.2019 12:00:00 26,2 20,2 11 6 ENE 1008,8 -
16.07.2019 11:00:00 26,1 20,8 15 8 E 1008,5 -
16.07.2019 10:00:00 25,2 19,0 5 3 NNE 1008,4 -
16.07.2019 09:00:00 24,6 18,9 13 7 ENE 1008,3 -
16.07.2019 08:00:00 24,4 18,3 13 7 NE 1008,1 -
16.07.2019 07:00:00 23,8 18,2 13 7 N 1007,8 -
16.07.2019 06:00:00 23,9 18,9 26 14 N 1007,9 -
16.07.2019 05:00:00 24,0 19,4 21 11 NNE 1008,2 -
16.07.2019 04:00:00 22,4 17,0 4 2 N 1008,4 -
16.07.2019 03:00:00 22,5 17,1 4 2 NW 1008,6 -
16.07.2019 02:00:00 22,8 17,0 2 1 N 1008,9 -

tt = temperature
td = dewpoint
ff = wind speed
dd = wind direction
ppp = reduced air pressure
rr = precipitation

Next stations